Destiny — ZCTE3 — position and weather

sailwx.info

Track history (hours):
 
Tides and Currents Weather Stations Pressure Air Temp Water Temp Dewpoint Dewpoint Depression Visibility Wind Speed Wind Dir Waves Ship Positions

Destiny

Last reported at 2017-Aug-18 10:52 UTC. Time now 2017-Aug-18 16:19 UTC.
Position N 43°35' E 007°08'.

Length 37 m; draft 2.2 m.

Type: Pleasure craft. MMSI: 319864000.

Date/timePositionNaut miles runAvg speedWind from/ knotsBaromVisibWave heightAir tempDewpointWater temp
2017-Aug-18 10:52N 43°35' E 007°08'0 0.0
2017-Aug-18 09:59N 43°35' E 007°08'4 7.3
2017-Aug-18 09:30N 43°32' E 007°10'816.1
2017-Aug-18 09:00N 43°25' E 007°16'816.9
2017-Aug-18 08:30N 43°18' E 007°22'917.2
2017-Aug-18 08:00N 43°10' E 007°27'917.5
2017-Aug-18 07:31N 43°03' E 007°33'917.2
2017-Aug-18 07:00N 42°55' E 007°38'917.2
2017-Aug-18 06:30N 42°47' E 007°43'817.0
2017-Aug-18 06:00N 42°40' E 007°49'916.9
2017-Aug-18 05:28N 42°32' E 007°55'816.8
2017-Aug-18 05:00N 42°25' E 007°60'1117.2
2017-Aug-18 04:23N 42°16' E 008°07'  
2017-Aug-14 19:27N 41°08' E 009°32'0 0.0
2017-Aug-13 18:09N 41°08' E 009°32'0 0.0
2017-Aug-13 17:59N 41°08' E 009°32'0 0.9
2017-Aug-13 17:30N 41°08' E 009°33'7811.5
2017-Aug-13 10:43N 42°04' E 008°19'523.1
2017-Aug-13 10:30N 42°08' E 008°15'1123.2
2017-Aug-13 10:00N 42°17' E 008°06'1223.1
2017-Aug-13 09:31N 42°27' E 007°56'2022.0
2017-Aug-13 08:37N 42°42' E 007°40'221.6
2017-Aug-13 08:30N 42°44' E 007°38'1421.8
2017-Aug-13 07:52N 42°54' E 007°25'821.4
2017-Aug-13 07:29N 42°59' E 007°16'1121.4
2017-Aug-13 06:57N 43°06' E 007°04'1021.3
2017-Aug-13 06:30N 43°12' E 006°53'10 0.5
2017-Aug-12 11:25N 43°22' E 006°53'921.8
2017-Aug-12 11:00N 43°28' E 007°01'  
2017-Aug-09 21:01N 43°35' E 007°08'0 0.0
2017-Aug-09 20:34N 43°35' E 007°08'0 0.0
2017-Aug-08 19:07N 43°35' E 007°08'0 0.0
2017-Aug-08 13:25N 43°35' E 007°08'0 0.0
2017-Aug-08 12:13N 43°35' E 007°08'0 0.0
2017-Aug-08 11:59N 43°35' E 007°08'0 0.0
2017-Aug-08 10:53N 43°35' E 007°08'  
Track history (hours):
 
Tides and Currents Weather Stations Pressure Air Temp Water Temp Dewpoint Dewpoint Depression Visibility Wind Speed Wind Dir Waves Ship Positions

Destiny

Last reported at 2017-Aug-18 10:52 UTC. Time now 2017-Aug-18 16:19 UTC.
Position N 43°35' E 007°08'.

Length 37 m; draft 2.2 m.

Type: Pleasure craft. MMSI: 319864000.

Date/timePositionNaut miles runAvg speedWind from/ knotsBaromVisibWave heightAir tempDewpointWater temp
2017-Aug-18 10:52N 43°35' E 007°08'0 0.0
2017-Aug-18 09:59N 43°35' E 007°08'4 7.3
2017-Aug-18 09:30N 43°32' E 007°10'816.1
2017-Aug-18 09:00N 43°25' E 007°16'816.9
2017-Aug-18 08:30N 43°18' E 007°22'917.2
2017-Aug-18 08:00N 43°10' E 007°27'917.5
2017-Aug-18 07:31N 43°03' E 007°33'917.2
2017-Aug-18 07:00N 42°55' E 007°38'917.2
2017-Aug-18 06:30N 42°47' E 007°43'817.0
2017-Aug-18 06:00N 42°40' E 007°49'916.9
2017-Aug-18 05:28N 42°32' E 007°55'816.8
2017-Aug-18 05:00N 42°25' E 007°60'1117.2
2017-Aug-18 04:23N 42°16' E 008°07'  
2017-Aug-14 19:27N 41°08' E 009°32'0 0.0
2017-Aug-13 18:09N 41°08' E 009°32'0 0.0
2017-Aug-13 17:59N 41°08' E 009°32'0 0.9
2017-Aug-13 17:30N 41°08' E 009°33'7811.5
2017-Aug-13 10:43N 42°04' E 008°19'523.1
2017-Aug-13 10:30N 42°08' E 008°15'1123.2
2017-Aug-13 10:00N 42°17' E 008°06'1223.1
2017-Aug-13 09:31N 42°27' E 007°56'2022.0
2017-Aug-13 08:37N 42°42' E 007°40'221.6
2017-Aug-13 08:30N 42°44' E 007°38'1421.8
2017-Aug-13 07:52N 42°54' E 007°25'821.4
2017-Aug-13 07:29N 42°59' E 007°16'1121.4
2017-Aug-13 06:57N 43°06' E 007°04'1021.3
2017-Aug-13 06:30N 43°12' E 006°53'10 0.5
2017-Aug-12 11:25N 43°22' E 006°53'921.8
2017-Aug-12 11:00N 43°28' E 007°01'  
2017-Aug-09 21:01N 43°35' E 007°08'0 0.0
2017-Aug-09 20:34N 43°35' E 007°08'0 0.0
2017-Aug-08 19:07N 43°35' E 007°08'0 0.0
2017-Aug-08 13:25N 43°35' E 007°08'0 0.0
2017-Aug-08 12:13N 43°35' E 007°08'0 0.0
2017-Aug-08 11:59N 43°35' E 007°08'0 0.0
2017-Aug-08 10:53N 43°35' E 007°08'  

Dump ship's entire track history